sensor_id;sensor_type;location;lat;lon;timestamp;pressure;altitude;pressure_sealevel;temperature;humidity
54592;BME280;40488;48.558;18.150;2024-03-23T00:52:45;99167.50;;;9.70;77.52
54592;BME280;40488;48.558;18.150;2024-03-23T00:55:11;99167.53;;;9.67;77.82
54592;BME280;40488;48.558;18.150;2024-03-23T00:57:38;99169.22;;;9.65;77.80
54592;BME280;40488;48.558;18.150;2024-03-23T01:00:05;99170.13;;;9.58;77.72
54592;BME280;40488;48.558;18.150;2024-03-23T01:02:36;99164.19;;;9.53;77.76
54592;BME280;40488;48.558;18.150;2024-03-23T01:05:02;99162.53;;;9.52;78.20
54592;BME280;40488;48.558;18.150;2024-03-23T01:07:29;99162.53;;;9.52;78.06
54592;BME280;40488;48.558;18.150;2024-03-23T01:09:57;99154.00;;;9.53;78.72
54592;BME280;40488;48.558;18.150;2024-03-23T01:12:25;99148.09;;;9.52;78.32
54592;BME280;40488;48.558;18.150;2024-03-23T01:14:51;99139.63;;;9.50;78.31
54592;BME280;40488;48.558;18.150;2024-03-23T01:17:19;99138.75;;;9.50;78.89
54592;BME280;40488;48.558;18.150;2024-03-23T01:19:45;99140.47;;;9.48;78.82
54592;BME280;40488;48.558;18.150;2024-03-23T01:22:13;99145.56;;;9.48;78.25
54592;BME280;40488;48.558;18.150;2024-03-23T01:24:39;99137.94;;;9.44;78.78
54592;BME280;40488;48.558;18.150;2024-03-23T01:27:08;99144.75;;;9.42;78.34
54592;BME280;40488;48.558;18.150;2024-03-23T01:29:35;99134.56;;;9.36;78.75
54592;BME280;40488;48.558;18.150;2024-03-23T01:32:02;99127.78;;;9.37;79.23
54592;BME280;40488;48.558;18.150;2024-03-23T01:34:29;99119.31;;;9.38;78.86
54592;BME280;40488;48.558;18.150;2024-03-23T01:36:56;99127.78;;;9.37;78.80
54592;BME280;40488;48.558;18.150;2024-03-23T01:39:23;99121.00;;;9.31;79.23
54592;BME280;40488;48.558;18.150;2024-03-23T01:41:50;99120.16;;;9.35;79.06
54592;BME280;40488;48.558;18.150;2024-03-23T01:44:19;99116.75;;;9.36;78.98
54592;BME280;40488;48.558;18.150;2024-03-23T01:46:45;99118.47;;;9.34;79.24
54592;BME280;40488;48.558;18.150;2024-03-23T01:49:13;99121.00;;;9.34;78.97
54592;BME280;40488;48.558;18.150;2024-03-23T01:51:39;99126.09;;;9.34;79.55
54592;BME280;40488;48.558;18.150;2024-03-23T01:54:09;99118.50;;;9.28;79.55
54592;BME280;40488;48.558;18.150;2024-03-23T01:56:35;99113.41;;;9.22;79.57
54592;BME280;40488;48.558;18.150;2024-03-23T01:59:03;99113.44;;;9.19;79.45
54592;BME280;40488;48.558;18.150;2024-03-23T02:01:31;99106.63;;;9.21;79.16
54592;BME280;40488;48.558;18.150;2024-03-23T02:03:58;99105.75;;;9.24;79.32
54592;BME280;40488;48.558;18.150;2024-03-23T02:06:25;99099.00;;;9.20;80.04
54592;BME280;40488;48.558;18.150;2024-03-23T02:08:52;99102.41;;;9.17;79.83
54592;BME280;40488;48.558;18.150;2024-03-23T02:11:19;99093.09;;;9.16;79.38
54592;BME280;40488;48.558;18.150;2024-03-23T02:13:46;99091.41;;;9.12;80.05
54592;BME280;40488;48.558;18.150;2024-03-23T02:16:13;99082.94;;;9.07;80.25
54592;BME280;40488;48.558;18.150;2024-03-23T02:18:41;99072.75;;;9.07;80.03
54592;BME280;40488;48.558;18.150;2024-03-23T02:21:08;99072.75;;;9.07;80.18
54592;BME280;40488;48.558;18.150;2024-03-23T02:23:37;99060.91;;;9.06;80.58
54592;BME280;40488;48.558;18.150;2024-03-23T02:26:03;99057.47;;;9.07;80.62
54592;BME280;40488;48.558;18.150;2024-03-23T02:28:31;99049.00;;;9.05;80.61
54592;BME280;40488;48.558;18.150;2024-03-23T02:30:57;99056.66;;;9.07;79.92
54592;BME280;40488;48.558;18.150;2024-03-23T02:33:26;99053.25;;;9.08;80.69
54592;BME280;40488;48.558;18.150;2024-03-23T02:35:55;99058.34;;;9.09;80.62
54592;BME280;40488;48.558;18.150;2024-03-23T02:38:23;99059.19;;;9.08;80.78
54592;BME280;40488;48.558;18.150;2024-03-23T02:40:51;99058.34;;;9.08;80.68
54592;BME280;40488;48.558;18.150;2024-03-23T02:43:18;99055.81;;;9.06;80.24
54592;BME280;40488;48.558;18.150;2024-03-23T02:45:45;99045.63;;;9.05;80.98
54592;BME280;40488;48.558;18.150;2024-03-23T02:48:13;99038.84;;;9.02;80.06
54592;BME280;40488;48.558;18.150;2024-03-23T02:50:39;99040.53;;;9.00;81.16
54592;BME280;40488;48.558;18.150;2024-03-23T02:53:06;99037.16;;;8.98;80.94
54592;BME280;40488;48.558;18.150;2024-03-23T02:55:33;99036.34;;;8.95;81.19
54592;BME280;40488;48.558;18.150;2024-03-23T02:58:01;99034.63;;;9.00;81.17
54592;BME280;40488;48.558;18.150;2024-03-23T03:00:28;99027.81;;;9.00;81.10
54592;BME280;40488;48.558;18.150;2024-03-23T03:02:55;99031.22;;;9.01;80.95
54592;BME280;40488;48.558;18.150;2024-03-23T03:05:22;99029.53;;;9.01;81.19
54592;BME280;40488;48.558;18.150;2024-03-23T03:07:49;99026.97;;;9.03;80.61
54592;BME280;40488;48.558;18.150;2024-03-23T03:10:15;99028.66;;;9.05;81.24
54592;BME280;40488;48.558;18.150;2024-03-23T03:12:43;99027.78;;;9.05;80.95
54592;BME280;40488;48.558;18.150;2024-03-23T03:15:10;99028.66;;;9.08;81.12
54592;BME280;40488;48.558;18.150;2024-03-23T03:17:38;99020.19;;;9.03;80.55
54592;BME280;40488;48.558;18.150;2024-03-23T03:20:06;99022.72;;;9.03;80.92
54592;BME280;40488;48.558;18.150;2024-03-23T03:22:33;99026.13;;;8.98;80.24
54592;BME280;40488;48.558;18.150;2024-03-23T03:25:00;99015.97;;;8.98;80.43
54592;BME280;40488;48.558;18.150;2024-03-23T03:27:29;99018.53;;;8.96;80.70
54592;BME280;40488;48.558;18.150;2024-03-23T03:29:57;99013.38;;;9.02;80.78
54592;BME280;40488;48.558;18.150;2024-03-23T03:32:25;99015.09;;;9.06;80.39
54592;BME280;40488;48.558;18.150;2024-03-23T03:34:52;99005.75;;;9.07;80.51
54592;BME280;40488;48.558;18.150;2024-03-23T03:37:19;99004.91;;;9.09;80.66
54592;BME280;40488;48.558;18.150;2024-03-23T03:39:46;99002.34;;;9.08;80.92
54592;BME280;40488;48.558;18.150;2024-03-23T03:42:14;99002.34;;;9.08;80.52
54592;BME280;40488;48.558;18.150;2024-03-23T03:44:41;99000.63;;;9.11;80.63
54592;BME280;40488;48.558;18.150;2024-03-23T03:47:07;98999.75;;;9.12;80.11
54592;BME280;40488;48.558;18.150;2024-03-23T03:49:36;98999.81;;;9.09;80.43
54592;BME280;40488;48.558;18.150;2024-03-23T03:52:03;98989.63;;;9.09;80.80
54592;BME280;40488;48.558;18.150;2024-03-23T03:54:30;98989.59;;;9.11;80.85
54592;BME280;40488;48.558;18.150;2024-03-23T03:56:57;98986.19;;;9.10;80.77
54592;BME280;40488;48.558;18.150;2024-03-23T03:59:24;98992.16;;;9.11;80.80
54592;BME280;40488;48.558;18.150;2024-03-23T04:01:51;98989.63;;;9.09;80.69
54592;BME280;40488;48.558;18.150;2024-03-23T04:04:18;98991.34;;;9.04;81.28
54592;BME280;40488;48.558;18.150;2024-03-23T04:06:46;98986.25;;;9.04;80.57
54592;BME280;40488;48.558;18.150;2024-03-23T04:09:13;98984.56;;;9.00;81.36
54592;BME280;40488;48.558;18.150;2024-03-23T04:11:41;98984.56;;;9.00;81.62
54592;BME280;40488;48.558;18.150;2024-03-23T04:14:08;98979.50;;;8.99;81.66
54592;BME280;40488;48.558;18.150;2024-03-23T04:16:35;98981.19;;;8.98;81.32
54592;BME280;40488;48.558;18.150;2024-03-23T04:19:02;98984.56;;;9.00;80.65
54592;BME280;40488;48.558;18.150;2024-03-23T04:21:29;98976.09;;;8.95;81.61
54592;BME280;40488;48.558;18.150;2024-03-23T04:23:58;98975.28;;;8.90;81.68
54592;BME280;40488;48.558;18.150;2024-03-23T04:26:25;98981.25;;;8.89;81.44
54592;BME280;40488;48.558;18.150;2024-03-23T04:28:53;98974.47;;;8.90;81.39
54592;BME280;40488;48.558;18.150;2024-03-23T04:31:20;98971.09;;;8.83;80.97
54592;BME280;40488;48.558;18.150;2024-03-23T04:33:47;98981.28;;;8.82;81.26
54592;BME280;40488;48.558;18.150;2024-03-23T04:36:13;98986.34;;;8.83;81.57
54592;BME280;40488;48.558;18.150;2024-03-23T04:38:41;98986.38;;;8.80;82.26
54592;BME280;40488;48.558;18.150;2024-03-23T04:41:11;98975.34;;;8.81;82.48
54592;BME280;40488;48.558;18.150;2024-03-23T04:43:38;98971.13;;;8.80;81.82
54592;BME280;40488;48.558;18.150;2024-03-23T04:46:06;98967.75;;;8.72;82.70
54592;BME280;40488;48.558;18.150;2024-03-23T04:48:33;98976.22;;;8.71;82.88
54592;BME280;40488;48.558;18.150;2024-03-23T04:51:02;98975.38;;;8.72;83.26
54592;BME280;40488;48.558;18.150;2024-03-23T04:53:29;98971.13;;;8.74;82.78
54592;BME280;40488;48.558;18.150;2024-03-23T04:55:57;98973.69;;;8.74;82.47
54592;BME280;40488;48.558;18.150;2024-03-23T04:58:26;98972.88;;;8.67;82.60
54592;BME280;40488;48.558;18.150;2024-03-23T05:00:55;98967.81;;;8.66;83.63
54592;BME280;40488;48.558;18.150;2024-03-23T05:03:22;98964.38;;;8.67;83.23
54592;BME280;40488;48.558;18.150;2024-03-23T05:05:49;98964.38;;;8.67;83.51
54592;BME280;40488;48.558;18.150;2024-03-23T05:08:16;98975.44;;;8.66;83.45
54592;BME280;40488;48.558;18.150;2024-03-23T05:10:43;98978.81;;;8.62;83.09
54592;BME280;40488;48.558;18.150;2024-03-23T05:13:10;98974.56;;;8.67;83.40
54592;BME280;40488;48.558;18.150;2024-03-23T05:15:39;98962.66;;;8.72;83.16
54592;BME280;40488;48.558;18.150;2024-03-23T05:18:05;98960.97;;;8.74;83.05
54592;BME280;40488;48.558;18.150;2024-03-23T05:20:33;98959.25;;;8.76;83.88
54592;BME280;40488;48.558;18.150;2024-03-23T05:22:59;98966.03;;;8.80;83.40
54592;BME280;40488;48.558;18.150;2024-03-23T05:25:26;98957.53;;;8.84;83.04
54592;BME280;40488;48.558;18.150;2024-03-23T05:27:53;98954.06;;;8.94;83.04
54592;BME280;40488;48.558;18.150;2024-03-23T05:30:20;98957.44;;;8.96;83.31
54592;BME280;40488;48.558;18.150;2024-03-23T05:32:48;98946.44;;;8.94;83.50
54592;BME280;40488;48.558;18.150;2024-03-23T05:35:15;98935.47;;;8.83;83.23
54592;BME280;40488;48.558;18.150;2024-03-23T05:37:42;98937.19;;;8.81;82.53
54592;BME280;40488;48.558;18.150;2024-03-23T05:40:10;98946.47;;;8.87;83.20
54592;BME280;40488;48.558;18.150;2024-03-23T05:42:36;98943.03;;;8.94;83.28
54592;BME280;40488;48.558;18.150;2024-03-23T05:45:04;98928.56;;;9.00;83.02
54592;BME280;40488;48.558;18.150;2024-03-23T05:47:32;98921.75;;;9.05;83.33
54592;BME280;40488;48.558;18.150;2024-03-23T05:50:01;98909.84;;;9.07;82.86
54592;BME280;40488;48.558;18.150;2024-03-23T05:52:29;98898.00;;;9.05;82.52
54592;BME280;40488;48.558;18.150;2024-03-23T05:54:56;98909.91;;;9.04;82.78
54592;BME280;40488;48.558;18.150;2024-03-23T05:57:24;98925.97;;;9.11;82.85
54592;BME280;40488;48.558;18.150;2024-03-23T05:59:51;98924.22;;;9.17;82.22
54592;BME280;40488;48.558;18.150;2024-03-23T06:02:19;98920.75;;;9.24;82.22
54592;BME280;40488;48.558;18.150;2024-03-23T06:04:46;98924.09;;;9.32;82.19
54592;BME280;40488;48.558;18.150;2024-03-23T06:07:14;98914.72;;;9.40;82.49
54592;BME280;40488;48.558;18.150;2024-03-23T06:09:42;98923.09;;;9.49;82.05
54592;BME280;40488;48.558;18.150;2024-03-23T06:12:08;98906.97;;;9.50;81.92
54592;BME280;40488;48.558;18.150;2024-03-23T06:14:36;98913.75;;;9.51;81.55
54592;BME280;40488;48.558;18.150;2024-03-23T06:17:03;98907.78;;;9.55;81.86
54592;BME280;40488;48.558;18.150;2024-03-23T06:19:31;98905.16;;;9.64;81.74
54592;BME280;40488;48.558;18.150;2024-03-23T06:21:58;98903.34;;;9.72;81.48
54592;BME280;40488;48.558;18.150;2024-03-23T06:24:26;98914.34;;;9.77;81.70
54592;BME280;40488;48.558;18.150;2024-03-23T06:26:53;98907.47;;;9.85;81.38
54592;BME280;40488;48.558;18.150;2024-03-23T06:29:20;98900.63;;;9.90;81.81
54592;BME280;40488;48.558;18.150;2024-03-23T06:31:52;98898.91;;;9.92;81.02
54592;BME280;40488;48.558;18.150;2024-03-23T06:34:20;98897.25;;;9.91;81.49
54592;BME280;40488;48.558;18.150;2024-03-23T06:36:48;98902.34;;;9.91;80.63
54592;BME280;40488;48.558;18.150;2024-03-23T06:39:15;98895.44;;;9.96;80.55
54592;BME280;40488;48.558;18.150;2024-03-23T06:41:44;98897.13;;;10.00;80.39
54592;BME280;40488;48.558;18.150;2024-03-23T06:44:18;98897.03;;;10.06;80.69
54592;BME280;40488;48.558;18.150;2024-03-23T06:46:45;98905.50;;;10.08;80.89
54592;BME280;40488;48.558;18.150;2024-03-23T06:49:12;98897.84;;;10.13;80.15
54592;BME280;40488;48.558;18.150;2024-03-23T06:51:39;98902.06;;;10.15;80.13
54592;BME280;40488;48.558;18.150;2024-03-23T06:54:06;98902.88;;;10.19;80.31
54592;BME280;40488;48.558;18.150;2024-03-23T06:56:33;98891.81;;;10.21;79.79
54592;BME280;40488;48.558;18.150;2024-03-23T06:59:01;98890.09;;;10.23;80.05
54592;BME280;40488;48.558;18.150;2024-03-23T07:01:29;98883.34;;;10.19;79.61
54592;BME280;40488;48.558;18.150;2024-03-23T07:03:55;98892.69;;;10.19;79.67
54592;BME280;40488;48.558;18.150;2024-03-23T07:06:23;98896.91;;;10.21;79.59
54592;BME280;40488;48.558;18.150;2024-03-23T07:08:49;98884.94;;;10.26;79.19
54592;BME280;40488;48.558;18.150;2024-03-23T07:11:20;98884.09;;;10.26;79.17
54592;BME280;40488;48.558;18.150;2024-03-23T07:13:49;98883.19;;;10.31;79.09
54592;BME280;40488;48.558;18.150;2024-03-23T07:16:18;98886.50;;;10.38;78.73
54592;BME280;40488;48.558;18.150;2024-03-23T07:18:44;98883.06;;;10.40;77.97
54592;BME280;40488;48.558;18.150;2024-03-23T07:21:12;98876.19;;;10.45;77.83
54592;BME280;40488;48.558;18.150;2024-03-23T07:23:41;98871.88;;;10.50;77.28
54592;BME280;40488;48.558;18.150;2024-03-23T07:26:10;98875.16;;;10.58;77.00
54592;BME280;40488;48.558;18.150;2024-03-23T07:28:37;98875.91;;;10.66;76.75
54592;BME280;40488;48.558;18.150;2024-03-23T07:31:09;98872.41;;;10.73;76.48
54592;BME280;40488;48.558;18.150;2024-03-23T07:33:41;98867.22;;;10.80;76.36
54592;BME280;40488;48.558;18.150;2024-03-23T07:36:09;98863.59;;;10.93;76.25
54592;BME280;40488;48.558;18.150;2024-03-23T07:38:35;98862.56;;;11.04;76.32
54592;BME280;40488;48.558;18.150;2024-03-23T07:41:03;98864.91;;;11.18;76.46
54592;BME280;40488;48.558;18.150;2024-03-23T07:43:30;98866.44;;;11.28;76.39
54592;BME280;40488;48.558;18.150;2024-03-23T07:45:57;98850.97;;;11.37;76.41
54592;BME280;40488;48.558;18.150;2024-03-23T07:48:23;98850.88;;;11.40;76.17
54592;BME280;40488;48.558;18.150;2024-03-23T07:50:59;98849.19;;;11.42;75.88
54592;BME280;40488;48.558;18.150;2024-03-23T07:53:26;98845.63;;;11.49;75.68
54592;BME280;40488;48.558;18.150;2024-03-23T07:55:56;98842.03;;;11.59;75.74
54592;BME280;40488;48.558;18.150;2024-03-23T07:58:24;98838.38;;;11.75;75.32
54592;BME280;40488;48.558;18.150;2024-03-23T08:00:52;98842.34;;;11.88;75.16
54592;BME280;40488;48.558;18.150;2024-03-23T08:03:18;98836.16;;;12.01;75.07
54592;BME280;40488;48.558;18.150;2024-03-23T08:05:45;98845.38;;;12.07;74.52
54592;BME280;40488;48.558;18.150;2024-03-23T08:08:14;98844.38;;;12.16;74.36
54592;BME280;40488;48.558;18.150;2024-03-23T08:10:48;98852.59;;;12.30;74.03
54592;BME280;40488;48.558;18.150;2024-03-23T08:13:14;98849.88;;;12.37;73.73
54592;BME280;40488;48.558;18.150;2024-03-23T08:15:42;98842.06;;;12.45;72.80
54592;BME280;40488;48.558;18.150;2024-03-23T08:18:09;98840.22;;;12.50;72.57
54592;BME280;40488;48.558;18.150;2024-03-23T08:20:36;98833.09;;;12.64;72.09
54592;BME280;40488;48.558;18.150;2024-03-23T08:23:03;98835.47;;;12.71;71.66
54592;BME280;40488;48.558;18.150;2024-03-23T08:25:32;98824.94;;;12.84;71.37
54592;BME280;40488;48.558;18.150;2024-03-23T08:27:58;98825.25;;;13.05;70.94
54592;BME280;40488;48.558;18.150;2024-03-23T08:30:26;98814.34;;;13.32;69.91
54592;BME280;40488;48.558;18.150;2024-03-23T08:32:52;98807.38;;;13.37;67.93
54592;BME280;40488;48.558;18.150;2024-03-23T08:35:19;98816.44;;;13.51;67.63
54592;BME280;40488;48.558;18.150;2024-03-23T08:37:46;98815.47;;;13.55;67.00
54592;BME280;40488;48.558;18.150;2024-03-23T08:40:13;98806.81;;;13.59;66.54
54592;BME280;40488;48.558;18.150;2024-03-23T08:42:41;98810.81;;;13.69;66.30
54592;BME280;40488;48.558;18.150;2024-03-23T08:45:09;98800.41;;;13.75;65.96
54592;BME280;40488;48.558;18.150;2024-03-23T08:47:35;98795.03;;;13.82;65.89
54592;BME280;40488;48.558;18.150;2024-03-23T08:50:03;98792.44;;;13.84;65.49
54592;BME280;40488;48.558;18.150;2024-03-23T08:52:29;98790.97;;;13.75;65.24
54592;BME280;40488;48.558;18.150;2024-03-23T08:54:57;98792.34;;;13.87;65.39
54592;BME280;40488;48.558;18.150;2024-03-23T08:57:24;98783.44;;;14.00;65.85
54592;BME280;40488;48.558;18.150;2024-03-23T08:59:53;98785.28;;;13.95;64.94
54592;BME280;40488;48.558;18.150;2024-03-23T09:02:19;98781.66;;;14.02;65.60
54592;BME280;40488;48.558;18.150;2024-03-23T09:04:46;98772.81;;;14.12;66.07
54592;BME280;40488;48.558;18.150;2024-03-23T09:07:12;98766.75;;;14.15;65.71
54592;BME280;40488;48.558;18.150;2024-03-23T09:09:40;98757.31;;;14.15;65.62
54592;BME280;40488;48.558;18.150;2024-03-23T09:12:06;98766.75;;;14.15;66.05
54592;BME280;40488;48.558;18.150;2024-03-23T09:14:34;98764.13;;;14.16;66.65
54592;BME280;40488;48.558;18.150;2024-03-23T09:17:01;98764.66;;;14.27;66.36
54592;BME280;40488;48.558;18.150;2024-03-23T09:19:29;98753.34;;;14.34;66.67
54592;BME280;40488;48.558;18.150;2024-03-23T09:21:55;98747.22;;;14.38;65.83
54592;BME280;40488;48.558;18.150;2024-03-23T09:24:23;98741.09;;;14.42;65.69
54592;BME280;40488;48.558;18.150;2024-03-23T09:26:51;98739.53;;;14.38;65.01
54592;BME280;40488;48.558;18.150;2024-03-23T09:29:18;98737.22;;;14.29;64.82
54592;BME280;40488;48.558;18.150;2024-03-23T09:31:45;98732.97;;;14.28;64.78
54592;BME280;40488;48.558;18.150;2024-03-23T09:34:14;98729.47;;;14.32;65.05
54592;BME280;40488;48.558;18.150;2024-03-23T09:36:41;98727.78;;;14.30;64.62
54592;BME280;40488;48.558;18.150;2024-03-23T09:39:08;98726.91;;;14.32;64.59
54592;BME280;40488;48.558;18.150;2024-03-23T09:41:35;98724.13;;;14.38;64.51
54592;BME280;40488;48.558;18.150;2024-03-23T09:44:02;98717.22;;;14.40;65.04
54592;BME280;40488;48.558;18.150;2024-03-23T09:46:29;98710.28;;;14.42;65.61
54592;BME280;40488;48.558;18.150;2024-03-23T09:49:00;98705.91;;;14.46;65.71
54592;BME280;40488;48.558;18.150;2024-03-23T09:51:28;98703.19;;;14.50;65.73
54592;BME280;40488;48.558;18.150;2024-03-23T09:53:56;98703.03;;;14.55;65.49
54592;BME280;40488;48.558;18.150;2024-03-23T09:56:22;98685.69;;;14.61;65.60
54592;BME280;40488;48.558;18.150;2024-03-23T09:58:49;98671.66;;;14.71;65.81
54592;BME280;40488;48.558;18.150;2024-03-23T10:01:16;98671.25;;;14.84;65.87
54592;BME280;40488;48.558;18.150;2024-03-23T10:03:44;98656.16;;;14.99;65.94
54592;BME280;40488;48.558;18.150;2024-03-23T10:06:10;98650.38;;;15.17;65.91
54592;BME280;40488;48.558;18.150;2024-03-23T10:08:39;98650.66;;;15.33;65.11
54592;BME280;40488;48.558;18.150;2024-03-23T10:11:12;98645.91;;;15.46;64.84
54592;BME280;40488;48.558;18.150;2024-03-23T10:13:42;98642.97;;;15.56;64.20
54592;BME280;40488;48.558;18.150;2024-03-23T10:16:08;98650.44;;;15.62;62.76
54592;BME280;40488;48.558;18.150;2024-03-23T10:18:37;98642.59;;;15.65;62.40
54592;BME280;40488;48.558;18.150;2024-03-23T10:21:07;98637.91;;;15.76;62.23
54592;BME280;40488;48.558;18.150;2024-03-23T10:23:37;98630.13;;;15.99;62.50
54592;BME280;40488;48.558;18.150;2024-03-23T10:28:53;98617.19;;;16.43;61.18
54592;BME280;40488;48.558;18.150;2024-03-23T10:31:20;98620.44;;;16.48;59.40
54592;BME280;40488;48.558;18.150;2024-03-23T10:33:48;98616.44;;;16.41;58.59
54592;BME280;40488;48.558;18.150;2024-03-23T10:36:14;98605.88;;;16.27;57.98
54592;BME280;40488;48.558;18.150;2024-03-23T10:38:42;98597.09;;;16.31;58.42
54592;BME280;40488;48.558;18.150;2024-03-23T10:41:09;98603.09;;;16.53;58.92
54592;BME280;40488;48.558;18.150;2024-03-23T10:43:37;98595.88;;;16.80;58.93
54592;BME280;40488;48.558;18.150;2024-03-23T10:46:05;98595.94;;;16.98;58.11
54592;BME280;40488;48.558;18.150;2024-03-23T10:48:32;98587.47;;;17.15;57.43
54592;BME280;40488;48.558;18.150;2024-03-23T10:50:59;98585.66;;;17.35;57.35
54592;BME280;40488;48.558;18.150;2024-03-23T10:53:27;98579.09;;;17.47;56.41
54592;BME280;40488;48.558;18.150;2024-03-23T10:55:54;98576.19;;;17.55;56.22
54592;BME280;40488;48.558;18.150;2024-03-23T10:58:24;98573.69;;;17.53;55.52
54592;BME280;40488;48.558;18.150;2024-03-23T11:00:52;98563.06;;;17.40;55.12
54592;BME280;40488;48.558;18.150;2024-03-23T11:06:09;98548.16;;;17.28;54.78
54592;BME280;40488;48.558;18.150;2024-03-23T11:08:36;98540.34;;;17.30;55.26
54592;BME280;40488;48.558;18.150;2024-03-23T11:13:50;98530.72;;;17.33;54.97
54592;BME280;40488;48.558;18.150;2024-03-23T11:16:17;98535.75;;;17.36;55.35
54592;BME280;40488;48.558;18.150;2024-03-23T11:18:49;98528.16;;;17.33;55.42
54592;BME280;40488;48.558;18.150;2024-03-23T11:26:48;98498.56;;;17.40;54.27
54592;BME280;40488;48.558;18.150;2024-03-23T11:29:17;98493.75;;;17.52;54.71
54592;BME280;40488;48.558;18.150;2024-03-23T11:31:45;98497.94;;;17.54;53.74
54592;BME280;40488;48.558;18.150;2024-03-23T11:34:13;98495.56;;;17.50;52.53
54592;BME280;40488;48.558;18.150;2024-03-23T11:36:41;98492.75;;;17.37;52.44
54592;BME280;40488;48.558;18.150;2024-03-23T11:39:11;98497.06;;;17.36;54.07
54592;BME280;40488;48.558;18.150;2024-03-23T11:41:45;98481.84;;;17.30;53.53
54592;BME280;40488;48.558;18.150;2024-03-23T11:44:18;98486.38;;;17.25;52.88
54592;BME280;40488;48.558;18.150;2024-03-23T11:46:45;98466.91;;;17.20;52.51
54592;BME280;40488;48.558;18.150;2024-03-23T11:51:58;98433.16;;;17.24;52.41
54592;BME280;40488;48.558;18.150;2024-03-23T11:54:25;98431.38;;;17.43;51.01
54592;BME280;40488;48.558;18.150;2024-03-23T11:56:55;98426.25;;;17.61;52.26
54592;BME280;40488;48.558;18.150;2024-03-23T11:59:31;98412.16;;;17.68;51.73
54592;BME280;40488;48.558;18.150;2024-03-23T12:01:58;98412.97;;;17.68;50.45
54592;BME280;40488;48.558;18.150;2024-03-23T12:04:26;98415.75;;;17.81;50.99
54592;BME280;40488;48.558;18.150;2024-03-23T12:09:35;98399.06;;;17.88;50.62
54592;BME280;40488;48.558;18.150;2024-03-23T12:12:05;98395.88;;;17.83;50.57
54592;BME280;40488;48.558;18.150;2024-03-23T12:14:37;98395.28;;;17.78;51.17
54592;BME280;40488;48.558;18.150;2024-03-23T12:17:07;98386.72;;;17.77;50.87
54592;BME280;40488;48.558;18.150;2024-03-23T12:19:35;98388.06;;;17.84;52.26
54592;BME280;40488;48.558;18.150;2024-03-23T12:22:02;98391.91;;;17.93;52.91
54592;BME280;40488;48.558;18.150;2024-03-23T12:24:30;98382.94;;;18.00;52.33
54592;BME280;40488;48.558;18.150;2024-03-23T12:26:59;98388.84;;;18.02;52.10
54592;BME280;40488;48.558;18.150;2024-03-23T12:29:27;98375.19;;;18.00;52.35
54592;BME280;40488;48.558;18.150;2024-03-23T12:31:55;98375.66;;;18.08;52.99
54592;BME280;40488;48.558;18.150;2024-03-23T12:34:23;98379.94;;;17.92;53.34
54592;BME280;40488;48.558;18.150;2024-03-23T12:36:49;98385.25;;;17.89;52.86
54592;BME280;40488;48.558;18.150;2024-03-23T12:39:17;98387.06;;;17.87;52.73
54592;BME280;40488;48.558;18.150;2024-03-23T12:41:44;98392.25;;;17.87;54.07
54592;BME280;40488;48.558;18.150;2024-03-23T12:44:12;98385.53;;;17.83;53.52
54592;BME280;40488;48.558;18.150;2024-03-23T12:46:39;98388.81;;;17.86;53.99
54592;BME280;40488;48.558;18.150;2024-03-23T12:49:08;98382.56;;;18.07;52.94
54592;BME280;40488;48.558;18.150;2024-03-23T12:51:34;98385.41;;;18.51;52.68
54592;BME280;40488;48.558;18.150;2024-03-23T12:54:02;98392.59;;;18.93;52.86
54592;BME280;40488;48.558;18.150;2024-03-23T12:56:28;98395.66;;;19.15;52.58
54592;BME280;40488;48.558;18.150;2024-03-23T12:58:56;98385.03;;;19.20;52.38
54592;BME280;40488;48.558;18.150;2024-03-23T13:01:23;98385.47;;;19.28;53.09
54592;BME280;40488;48.558;18.150;2024-03-23T13:03:50;98378.03;;;19.37;52.57
54592;BME280;40488;48.558;18.150;2024-03-23T13:06:18;98390.72;;;19.42;53.36
54592;BME280;40488;48.558;18.150;2024-03-23T13:08:46;98387.03;;;19.46;52.64
54592;BME280;40488;48.558;18.150;2024-03-23T13:11:12;98385.38;;;19.45;51.30
54592;BME280;40488;48.558;18.150;2024-03-23T13:13:41;98380.72;;;19.36;51.79
54592;BME280;40488;48.558;18.150;2024-03-23T13:16:07;98386.13;;;19.31;51.45
54592;BME280;40488;48.558;18.150;2024-03-23T13:18:35;98371.00;;;19.39;52.23
54592;BME280;40488;48.558;18.150;2024-03-23T13:21:02;98370.22;;;19.53;52.28
54592;BME280;40488;48.558;18.150;2024-03-23T13:23:31;98353.78;;;19.54;51.66
54592;BME280;40488;48.558;18.150;2024-03-23T13:25:58;98362.91;;;19.30;50.96
54592;BME280;40488;48.558;18.150;2024-03-23T13:28:26;98356.00;;;19.15;51.92
54592;BME280;40488;48.558;18.150;2024-03-23T13:30:53;98349.53;;;19.08;51.82
54592;BME280;40488;48.558;18.150;2024-03-23T13:33:20;98348.56;;;18.95;52.01
54592;BME280;40488;48.558;18.150;2024-03-23T13:35:50;98347.66;;;18.80;53.51
54592;BME280;40488;48.558;18.150;2024-03-23T13:38:18;98346.47;;;18.70;53.87
54592;BME280;40488;48.558;18.150;2024-03-23T13:40:53;98337.56;;;18.60;54.09
54592;BME280;40488;48.558;18.150;2024-03-23T13:43:20;98334.56;;;18.67;54.61
54592;BME280;40488;48.558;18.150;2024-03-23T13:45:47;98336.06;;;18.87;53.70
54592;BME280;40488;48.558;18.150;2024-03-23T13:48:15;98328.88;;;18.92;53.73
54592;BME280;40488;48.558;18.150;2024-03-23T13:50:41;98323.00;;;19.04;53.54
54592;BME280;40488;48.558;18.150;2024-03-23T13:53:10;98316.56;;;19.11;53.57
54592;BME280;40488;48.558;18.150;2024-03-23T13:55:36;98310.81;;;19.06;53.28
54592;BME280;40488;48.558;18.150;2024-03-23T13:58:05;98322.75;;;19.09;53.89
54592;BME280;40488;48.558;18.150;2024-03-23T14:00:31;98326.69;;;19.00;55.31
54592;BME280;40488;48.558;18.150;2024-03-23T14:02:59;98323.81;;;18.91;55.17
54592;BME280;40488;48.558;18.150;2024-03-23T14:05:25;98320.06;;;18.81;54.88
54592;BME280;40488;48.558;18.150;2024-03-23T14:07:53;98325.38;;;18.78;55.63